createdAt,value
2022-08-02T04:00:27.584Z,0.00
2022-08-02T04:01:27.652Z,0.00
2022-08-02T04:02:27.560Z,0.00
2022-08-02T04:03:27.529Z,0.00
2022-08-02T04:04:27.516Z,0.00
2022-08-02T04:05:27.498Z,0.00
2022-08-02T04:06:28.519Z,5.62
2022-08-02T04:08:34.299Z,5.62
2022-08-02T04:08:35.600Z,5.62
2022-08-02T04:09:28.462Z,5.62
2022-08-02T04:10:27.440Z,5.62
2022-08-02T04:11:32.460Z,5.62
2022-08-02T04:12:27.419Z,5.62
2022-08-02T04:13:31.489Z,5.62
2022-08-02T04:14:27.420Z,5.62
2022-08-02T04:15:27.383Z,5.62
2022-08-02T04:16:27.371Z,11.25
2022-08-02T04:17:27.365Z,11.25
2022-08-02T04:18:27.352Z,11.25
2022-08-02T04:19:27.353Z,11.25
2022-08-02T04:20:27.326Z,11.25
2022-08-02T04:21:27.318Z,11.25
2022-08-02T04:22:33.326Z,11.25
2022-08-02T04:23:27.296Z,11.25
2022-08-02T04:24:27.296Z,11.25
2022-08-02T04:25:35.402Z,11.25
2022-08-02T04:26:28.582Z,11.25
2022-08-02T04:28:15.663Z,11.25
2022-08-02T04:28:29.116Z,11.25
2022-08-02T04:29:27.248Z,11.25
2022-08-02T04:30:27.216Z,11.25
2022-08-02T04:31:27.211Z,11.25
2022-08-02T04:32:27.194Z,11.25
2022-08-02T04:33:32.208Z,11.25
2022-08-02T04:34:27.176Z,11.25
2022-08-02T04:35:27.170Z,11.25
2022-08-02T04:36:30.905Z,11.25
2022-08-02T04:37:27.152Z,11.25
2022-08-02T04:38:27.129Z,11.25
2022-08-02T04:39:27.130Z,11.25
2022-08-02T04:40:27.116Z,11.25
2022-08-02T04:41:27.098Z,11.25
2022-08-02T04:42:27.088Z,11.25
2022-08-02T04:43:27.073Z,16.88
2022-08-02T04:44:32.082Z,11.25
2022-08-02T04:45:27.070Z,11.25
2022-08-02T04:46:27.041Z,11.25
2022-08-02T04:48:03.494Z,11.25
2022-08-02T04:48:28.016Z,11.25
2022-08-02T04:49:27.214Z,11.25
2022-08-02T04:50:27.005Z,11.25
2022-08-02T04:51:38.161Z,16.88
2022-08-02T04:52:28.036Z,16.88
2022-08-02T04:53:26.963Z,16.88
2022-08-02T04:54:26.949Z,16.88
2022-08-02T04:55:31.983Z,22.50
2022-08-02T04:56:26.927Z,22.50
2022-08-02T04:57:26.917Z,22.50
2022-08-02T04:58:42.272Z,28.12
2022-08-02T04:59:27.895Z,28.12
2022-08-02T05:00:27.027Z,33.75
2022-08-02T05:01:26.875Z,33.75
2022-08-02T05:02:26.862Z,33.75
2022-08-02T05:03:26.855Z,33.75
2022-08-02T05:04:26.872Z,33.75
2022-08-02T05:05:26.860Z,33.75
2022-08-02T05:06:31.839Z,33.75
2022-08-02T05:07:26.811Z,39.38
2022-08-02T05:08:26.817Z,39.38
2022-08-02T05:09:26.800Z,45.00
2022-08-02T05:10:26.787Z,45.00
2022-08-02T05:11:34.356Z,39.38
2022-08-02T05:12:27.749Z,45.00
2022-08-02T05:13:26.743Z,45.00
2022-08-02T05:14:26.728Z,45.00
2022-08-02T05:15:30.330Z,39.38
2022-08-02T05:16:31.564Z,45.00
2022-08-02T05:17:31.719Z,45.00
2022-08-02T05:18:26.689Z,45.00
2022-08-02T05:19:26.675Z,45.00
2022-08-02T05:20:26.672Z,45.00
2022-08-02T05:21:26.679Z,45.00
2022-08-02T05:22:26.648Z,45.00
2022-08-02T05:23:26.638Z,39.38
2022-08-02T05:24:26.618Z,39.38
2022-08-02T05:25:26.724Z,39.38
2022-08-02T05:26:26.596Z,45.00
2022-08-02T05:27:26.586Z,45.00
2022-08-02T05:28:31.618Z,39.38
2022-08-02T05:29:26.566Z,39.38
2022-08-02T05:30:26.554Z,39.38
2022-08-02T05:31:26.550Z,39.38
2022-08-02T05:32:26.533Z,39.38
2022-08-02T05:33:26.523Z,39.38
2022-08-02T05:34:26.536Z,39.38
2022-08-02T05:35:26.503Z,39.38
2022-08-02T05:36:26.505Z,39.38
2022-08-02T05:37:26.483Z,45.00
2022-08-02T05:38:27.462Z,45.00
2022-08-02T05:39:31.852Z,45.00
2022-08-02T05:40:26.441Z,45.00
2022-08-02T05:41:26.448Z,39.38
2022-08-02T05:42:26.422Z,39.38
2022-08-02T05:43:26.422Z,39.38
2022-08-02T05:44:26.397Z,39.38
2022-08-02T05:45:26.394Z,39.38
2022-08-02T05:46:26.385Z,39.38
2022-08-02T05:47:26.371Z,39.38
2022-08-02T05:48:31.090Z,39.38
2022-08-02T05:49:27.437Z,39.38
2022-08-02T05:50:31.358Z,39.38
2022-08-02T05:51:26.333Z,45.00
2022-08-02T05:52:26.310Z,45.00
2022-08-02T05:53:26.298Z,45.00
2022-08-02T05:54:26.288Z,50.62
2022-08-02T05:55:26.281Z,50.62
2022-08-02T05:56:26.275Z,50.62
2022-08-02T05:57:26.284Z,50.62
2022-08-02T05:58:26.244Z,56.25
2022-08-02T05:59:26.233Z,61.88
2022-08-02T06:00:26.228Z,61.88
2022-08-02T06:01:31.327Z,56.25
2022-08-02T06:02:30.260Z,50.62
2022-08-02T06:03:26.188Z,50.62
2022-08-02T06:04:26.175Z,56.25
2022-08-02T06:05:26.172Z,56.25
2022-08-02T06:06:26.167Z,56.25
2022-08-02T06:07:26.151Z,56.25
2022-08-02T06:08:26.137Z,56.25
2022-08-02T06:09:27.216Z,50.62
2022-08-02T06:10:26.128Z,50.62
2022-08-02T06:11:26.112Z,56.25
2022-08-02T06:12:31.109Z,56.25
2022-08-02T06:13:26.087Z,50.62
2022-08-02T06:14:30.592Z,50.62
2022-08-02T06:15:26.060Z,50.62
2022-08-02T06:16:32.194Z,50.62
2022-08-02T06:17:27.045Z,56.25
2022-08-02T06:18:28.549Z,56.25
2022-08-02T06:19:26.013Z,56.25
2022-08-02T06:20:26.000Z,61.88
2022-08-02T06:22:32.596Z,61.88
2022-08-02T06:22:35.841Z,61.88
2022-08-02T06:23:31.994Z,61.88
2022-08-02T06:24:25.961Z,61.88
2022-08-02T06:25:50.728Z,67.50
2022-08-02T06:26:26.946Z,67.50
2022-08-02T06:27:25.922Z,73.12
2022-08-02T06:28:25.912Z,73.12
2022-08-02T06:29:25.900Z,78.75
2022-08-02T06:30:25.954Z,84.38
2022-08-02T06:31:25.924Z,90.00
2022-08-02T06:32:25.880Z,90.00
2022-08-02T06:33:25.862Z,90.00
2022-08-02T06:34:30.871Z,90.00
2022-08-02T06:35:25.847Z,101.25
2022-08-02T06:36:25.823Z,106.88
2022-08-02T06:37:25.830Z,101.25
2022-08-02T06:38:25.829Z,101.25
2022-08-02T06:39:25.793Z,101.25
2022-08-02T06:40:25.827Z,90.00
2022-08-02T06:41:25.770Z,78.75
2022-08-02T06:42:27.101Z,61.88
2022-08-02T06:43:25.754Z,67.50
2022-08-02T06:44:57.239Z,61.88
2022-08-02T06:45:31.748Z,61.88
2022-08-02T06:46:54.417Z,67.50
2022-08-02T06:47:26.715Z,73.12
2022-08-02T06:48:25.693Z,78.75
2022-08-02T06:49:25.743Z,67.50
2022-08-02T06:50:26.669Z,61.88
2022-08-02T06:51:25.663Z,67.50
2022-08-02T06:52:28.951Z,67.50
2022-08-02T06:53:25.643Z,61.88
2022-08-02T06:54:25.632Z,61.88
2022-08-02T06:55:25.619Z,56.25
2022-08-02T06:56:30.657Z,56.25
2022-08-02T06:57:25.615Z,56.25
2022-08-02T06:58:25.585Z,50.62
2022-08-02T06:59:25.605Z,56.25
2022-08-02T07:00:25.563Z,56.25
2022-08-02T07:01:25.634Z,61.88
2022-08-02T07:02:25.568Z,61.88
2022-08-02T07:03:25.530Z,61.88
2022-08-02T07:04:25.520Z,61.88
2022-08-02T07:05:25.513Z,61.88
2022-08-02T07:06:25.497Z,67.50
2022-08-02T07:07:30.521Z,73.12
2022-08-02T07:08:25.477Z,78.75
2022-08-02T07:09:25.472Z,78.75
2022-08-02T07:10:25.487Z,78.75
2022-08-02T07:11:25.452Z,78.75
2022-08-02T07:12:25.442Z,90.00
2022-08-02T07:13:25.423Z,84.38
2022-08-02T07:14:25.411Z,84.38
2022-08-02T07:15:25.401Z,84.38
2022-08-02T07:16:25.385Z,78.75
2022-08-02T07:17:25.387Z,84.38
2022-08-02T07:18:30.387Z,90.00
2022-08-02T07:19:38.021Z,90.00
2022-08-02T07:20:26.340Z,95.62
2022-08-02T07:21:56.609Z,95.62
2022-08-02T07:22:26.343Z,135.00
2022-08-02T07:23:25.309Z,129.38
2022-08-02T07:24:25.301Z,90.00
2022-08-02T07:25:25.287Z,84.38
2022-08-02T07:26:26.274Z,84.38
2022-08-02T07:27:25.275Z,84.38
2022-08-02T07:28:25.254Z,90.00
2022-08-02T07:29:32.721Z,95.62
2022-08-02T07:30:26.307Z,90.00
2022-08-02T07:31:25.224Z,84.38
2022-08-02T07:32:25.221Z,84.38
2022-08-02T07:33:37.819Z,84.38
2022-08-02T07:34:26.183Z,78.75
2022-08-02T07:35:25.175Z,84.38
2022-08-02T07:36:25.166Z,84.38
2022-08-02T07:37:35.016Z,84.38
2022-08-02T07:38:26.138Z,84.38
2022-08-02T07:39:25.135Z,84.38
2022-08-02T07:40:30.157Z,84.38
2022-08-02T07:41:25.108Z,84.38
2022-08-02T07:42:25.095Z,84.38
2022-08-02T07:43:25.095Z,84.38
2022-08-02T07:44:25.074Z,78.75
2022-08-02T07:45:25.063Z,78.75
2022-08-02T07:46:25.053Z,78.75
2022-08-02T07:47:25.045Z,78.75
2022-08-02T07:48:25.041Z,78.75
2022-08-02T07:49:25.018Z,78.75
2022-08-02T07:50:25.008Z,84.38
2022-08-02T07:51:30.036Z,84.38
2022-08-02T07:52:25.026Z,84.38
2022-08-02T07:53:50.041Z,84.38
2022-08-02T07:54:25.959Z,78.75
2022-08-02T07:55:24.970Z,84.38
2022-08-02T07:56:25.937Z,84.38
2022-08-02T07:57:24.929Z,84.38
2022-08-02T07:58:24.928Z,84.38
2022-08-02T07:59:24.909Z,90.00
2022-08-02T08:00:24.895Z,90.00
2022-08-02T08:01:24.902Z,101.25
2022-08-02T08:02:29.890Z,95.62
2022-08-02T08:03:24.870Z,90.00
2022-08-02T08:04:24.859Z,90.00
2022-08-02T08:05:24.886Z,90.00
2022-08-02T08:06:28.621Z,90.00
2022-08-02T08:07:24.815Z,84.38
2022-08-02T08:08:24.815Z,84.38
2022-08-02T08:09:24.793Z,90.00
2022-08-02T08:10:24.816Z,90.00
2022-08-02T08:11:24.773Z,90.00
2022-08-02T08:12:24.767Z,90.00
2022-08-02T08:13:29.779Z,90.00
2022-08-02T08:14:24.736Z,90.00
2022-08-02T08:15:24.729Z,95.62
2022-08-02T08:16:24.724Z,95.62
2022-08-02T08:17:24.729Z,95.62
2022-08-02T08:18:24.704Z,101.25
2022-08-02T08:19:51.731Z,95.62
2022-08-02T08:20:25.703Z,95.62
2022-08-02T08:21:24.658Z,95.62
2022-08-02T08:22:24.656Z,101.25
2022-08-02T08:23:24.666Z,101.25
2022-08-02T08:24:29.651Z,101.25
2022-08-02T08:25:24.618Z,101.25
2022-08-02T08:26:24.607Z,101.25
2022-08-02T08:27:24.630Z,106.88
2022-08-02T08:28:24.602Z,101.25
2022-08-02T08:29:24.576Z,101.25
2022-08-02T08:30:24.564Z,101.25
2022-08-02T08:31:24.551Z,106.88
2022-08-02T08:32:25.093Z,112.50
2022-08-02T08:33:24.539Z,106.88
2022-08-02T08:34:24.542Z,106.88
2022-08-02T08:35:29.527Z,135.00
2022-08-02T08:36:24.502Z,106.88
2022-08-02T08:37:24.487Z,129.38
2022-08-02T08:38:24.488Z,163.12
2022-08-02T08:39:24.461Z,112.50
2022-08-02T08:40:24.452Z,129.38
2022-08-02T08:41:24.440Z,106.88
2022-08-02T08:42:24.431Z,112.50
2022-08-02T08:43:24.431Z,106.88
2022-08-02T08:44:24.410Z,106.88
2022-08-02T08:45:24.397Z,106.88
2022-08-02T08:46:29.409Z,106.88
2022-08-02T08:47:24.375Z,112.50
2022-08-02T08:48:30.416Z,118.12
2022-08-02T08:49:25.395Z,106.88
2022-08-02T08:50:25.408Z,106.88
2022-08-02T08:51:24.335Z,112.50
2022-08-02T08:52:24.355Z,129.38
2022-08-02T08:53:24.318Z,118.12
2022-08-02T08:54:25.304Z,118.12
2022-08-02T08:55:24.316Z,157.50
2022-08-02T08:56:24.294Z,140.62
2022-08-02T08:57:29.327Z,101.25
2022-08-02T08:58:24.273Z,106.88
2022-08-02T08:59:24.245Z,101.25
2022-08-02T09:00:24.233Z,101.25
2022-08-02T09:01:24.319Z,118.12
2022-08-02T09:02:28.126Z,112.50
2022-08-02T09:03:24.246Z,101.25
2022-08-02T09:04:24.189Z,106.88
2022-08-02T09:05:24.176Z,112.50
2022-08-02T09:06:24.195Z,106.88
2022-08-02T09:07:24.160Z,106.88
2022-08-02T09:08:29.181Z,112.50
2022-08-02T09:09:24.133Z,292.50
2022-08-02T09:10:24.123Z,320.62
2022-08-02T09:11:24.207Z,292.50
2022-08-02T09:12:24.102Z,416.25
2022-08-02T09:13:37.690Z,225.00
2022-08-02T09:14:25.080Z,253.12
2022-08-02T09:15:24.067Z,225.00
2022-08-02T09:16:24.062Z,146.25
2022-08-02T09:17:24.049Z,129.38
2022-08-02T09:18:24.060Z,106.88
2022-08-02T09:19:29.047Z,106.88
2022-08-02T09:20:27.970Z,106.88
2022-08-02T09:21:25.002Z,202.50
2022-08-02T09:22:24.014Z,129.38
2022-08-02T09:23:23.996Z,112.50
2022-08-02T09:24:23.975Z,112.50
2022-08-02T09:25:23.968Z,118.12
2022-08-02T09:26:23.955Z,118.12
2022-08-02T09:27:23.967Z,123.75
2022-08-02T09:28:23.931Z,241.88
2022-08-02T09:29:23.938Z,298.12
2022-08-02T09:30:28.932Z,213.75
2022-08-02T09:31:23.912Z,157.50
2022-08-02T09:32:23.888Z,191.25
2022-08-02T09:33:23.875Z,129.38
2022-08-02T09:34:23.874Z,135.00
2022-08-02T09:35:23.862Z,146.25
2022-08-02T09:36:23.867Z,343.12
2022-08-02T09:37:23.832Z,174.38
2022-08-02T09:38:26.067Z,658.12
2022-08-02T09:39:23.861Z,911.25
2022-08-02T09:40:23.804Z,450.00
2022-08-02T09:41:28.812Z,534.38
2022-08-02T09:42:23.780Z,331.88
2022-08-02T09:43:24.817Z,658.12
2022-08-02T09:44:23.773Z,1636.88
2022-08-02T09:45:23.749Z,1575.00
2022-08-02T09:46:24.709Z,421.88
2022-08-02T09:47:23.724Z,281.25
2022-08-02T09:48:23.722Z,275.62
2022-08-02T09:49:23.765Z,174.38
2022-08-02T09:50:23.691Z,185.62
2022-08-02T09:51:23.679Z,180.00
2022-08-02T09:52:43.337Z,135.00
2022-08-02T09:53:24.655Z,123.75
2022-08-02T09:54:23.698Z,129.38
2022-08-02T09:55:23.636Z,146.25
2022-08-02T09:56:34.288Z,135.00
2022-08-02T09:57:24.612Z,140.62
2022-08-02T09:58:23.607Z,129.38
2022-08-02T09:59:23.613Z,129.38
2022-08-02T10:00:43.373Z,123.75
2022-08-02T10:01:37.043Z,123.75
2022-08-02T10:02:24.604Z,118.12
2022-08-02T10:03:34.946Z,118.12
2022-08-02T10:04:24.953Z,118.12
2022-08-02T10:05:23.536Z,123.75
2022-08-02T10:06:23.517Z,129.38
2022-08-02T10:07:23.506Z,129.38
2022-08-02T10:08:23.496Z,129.38
2022-08-02T10:09:23.498Z,135.00
2022-08-02T10:10:23.481Z,135.00
2022-08-02T10:11:23.470Z,129.38
2022-08-02T10:12:23.472Z,129.38
2022-08-02T10:13:23.440Z,129.38
2022-08-02T10:14:28.469Z,135.00
2022-08-02T10:15:27.274Z,140.62
2022-08-02T10:16:23.413Z,337.50
2022-08-02T10:17:23.399Z,230.62
2022-08-02T10:18:38.245Z,213.75
2022-08-02T10:20:00.943Z,180.00
2022-08-02T10:20:24.372Z,174.38
2022-08-02T10:21:23.355Z,157.50
2022-08-02T10:22:23.348Z,146.25
2022-08-02T10:23:23.332Z,146.25
2022-08-02T10:24:23.365Z,135.00
2022-08-02T10:25:28.335Z,135.00
2022-08-02T10:26:23.301Z,140.62
2022-08-02T10:27:23.288Z,135.00
2022-08-02T10:28:23.280Z,151.88
2022-08-02T10:29:23.275Z,151.88
2022-08-02T10:30:23.259Z,157.50
2022-08-02T10:31:23.246Z,163.12
2022-08-02T10:32:23.236Z,185.62
2022-08-02T10:33:23.224Z,258.75
2022-08-02T10:34:23.223Z,309.38
2022-08-02T10:35:25.830Z,421.88
2022-08-02T10:36:28.216Z,258.75
2022-08-02T10:37:23.179Z,270.00
2022-08-02T10:38:23.175Z,174.38
2022-08-02T10:39:23.170Z,281.25
2022-08-02T10:40:23.151Z,286.88
2022-08-02T10:41:23.135Z,337.50
2022-08-02T10:42:23.131Z,331.88
2022-08-02T10:43:23.115Z,264.38
2022-08-02T10:44:24.384Z,478.12
2022-08-02T10:45:23.131Z,410.62
2022-08-02T10:46:23.092Z,517.50
2022-08-02T10:47:28.096Z,455.62
2022-08-02T10:48:23.093Z,208.12
2022-08-02T10:49:40.274Z,146.25
2022-08-02T10:50:24.046Z,146.25
2022-08-02T10:51:24.502Z,196.88
2022-08-02T10:52:23.019Z,185.62
2022-08-02T10:53:23.006Z,174.38
2022-08-02T10:54:23.013Z,230.62
2022-08-02T10:55:23.034Z,590.62
2022-08-02T10:56:22.978Z,253.12
2022-08-02T10:57:22.969Z,180.00
2022-08-02T10:58:29.633Z,157.50
2022-08-02T10:59:22.993Z,180.00
2022-08-02T11:00:22.945Z,174.38
2022-08-02T11:01:23.051Z,146.25
2022-08-02T11:02:22.916Z,427.50
2022-08-02T11:03:22.900Z,866.25
2022-08-02T11:04:22.890Z,1063.12
2022-08-02T11:05:22.892Z,500.62
2022-08-02T11:06:25.658Z,270.00
2022-08-02T11:07:22.856Z,562.50
2022-08-02T11:08:22.853Z,793.12
2022-08-02T11:09:31.848Z,466.88
2022-08-02T11:10:22.823Z,556.88
2022-08-02T11:11:54.392Z,3352.50
2022-08-02T11:12:23.808Z,1935.00
2022-08-02T11:13:22.819Z,781.88
2022-08-02T11:14:22.793Z,945.00
2022-08-02T11:15:22.778Z,185.62
2022-08-02T11:16:22.763Z,202.50
2022-08-02T11:17:22.751Z,241.88
2022-08-02T11:18:22.746Z,191.25
2022-08-02T11:19:22.727Z,461.25
2022-08-02T11:20:27.763Z,1029.38
2022-08-02T11:21:22.731Z,1906.88
2022-08-02T11:22:25.822Z,3172.50
2022-08-02T11:23:22.683Z,3195.00
2022-08-02T11:24:23.676Z,3943.12
2022-08-02T11:25:22.685Z,3543.75
2022-08-02T11:26:22.663Z,3678.75
2022-08-02T11:27:22.641Z,4083.75
2022-08-02T11:28:25.075Z,4134.38
2022-08-02T11:29:22.620Z,4005.00
2022-08-02T11:30:26.642Z,4021.88
2022-08-02T11:31:22.601Z,3819.38
2022-08-02T11:32:22.593Z,3476.25
2022-08-02T11:33:28.603Z,3757.50
2022-08-02T11:34:37.779Z,2756.25
2022-08-02T11:35:23.590Z,3043.12
2022-08-02T11:36:22.820Z,2070.00
2022-08-02T11:37:22.535Z,1164.38
2022-08-02T11:38:22.526Z,1243.12
2022-08-02T11:39:22.515Z,534.38
2022-08-02T11:40:22.515Z,360.00
2022-08-02T11:41:47.450Z,596.25
2022-08-02T11:42:23.493Z,230.62
2022-08-02T11:43:22.478Z,219.38
2022-08-02T11:44:22.466Z,208.12
2022-08-02T11:45:25.189Z,174.38
2022-08-02T11:46:28.473Z,241.88
2022-08-02T11:47:22.436Z,185.62
2022-08-02T11:48:22.438Z,191.25
2022-08-02T11:49:22.536Z,174.38
2022-08-02T11:50:30.371Z,180.00
2022-08-02T11:51:23.391Z,225.00
2022-08-02T11:52:22.385Z,236.25
2022-08-02T11:53:22.380Z,270.00
2022-08-02T11:54:22.361Z,450.00
2022-08-02T11:55:22.361Z,343.12
2022-08-02T11:56:24.837Z,298.12
2022-08-02T11:57:27.350Z,309.38
2022-08-02T11:58:22.341Z,3015.00
2022-08-02T11:59:22.335Z,1642.50
2022-08-02T12:00:22.306Z,2328.75
2022-08-02T12:01:22.333Z,3093.75
2022-08-02T12:02:22.292Z,3240.00
2022-08-02T12:03:22.311Z,3358.12
2022-08-02T12:04:22.544Z,3521.25
2022-08-02T12:05:24.672Z,3628.12
2022-08-02T12:06:23.234Z,3605.62
2022-08-02T12:07:30.332Z,3448.12
2022-08-02T12:08:25.171Z,3628.12
2022-08-02T12:09:22.202Z,3774.38
2022-08-02T12:10:27.230Z,3577.50
2022-08-02T12:11:22.191Z,3363.75
2022-08-02T12:12:22.193Z,3082.50
2022-08-02T12:13:22.161Z,3144.38
2022-08-02T12:14:22.152Z,3307.50
2022-08-02T12:15:22.167Z,3346.88
2022-08-02T12:16:22.135Z,2739.38
2022-08-02T12:17:22.120Z,2424.38
2022-08-02T12:18:22.116Z,3532.50
2022-08-02T12:19:22.100Z,2683.12
2022-08-02T12:20:22.102Z,2835.00
2022-08-02T12:21:27.104Z,2778.75
2022-08-02T12:22:24.428Z,2953.12
2022-08-02T12:23:23.103Z,3116.25
2022-08-02T12:24:22.057Z,3200.62
2022-08-02T12:25:33.568Z,2964.38
2022-08-02T12:26:23.034Z,2840.62
2022-08-02T12:27:22.028Z,2953.12
2022-08-02T12:28:22.012Z,3161.25
2022-08-02T12:29:55.878Z,3521.25
2022-08-02T12:30:27.915Z,3639.38
2022-08-02T12:31:22.986Z,3498.75
2022-08-02T12:32:26.997Z,3318.75
2022-08-02T12:33:21.963Z,3251.25
2022-08-02T12:34:21.952Z,3262.50
2022-08-02T12:35:26.769Z,2970.00
2022-08-02T12:36:21.934Z,1693.12
2022-08-02T12:37:21.925Z,382.50
2022-08-02T12:38:21.911Z,213.75
2022-08-02T12:39:21.903Z,202.50
2022-08-02T12:40:25.159Z,196.88
2022-08-02T12:41:30.397Z,213.75
2022-08-02T12:42:22.875Z,213.75
2022-08-02T12:43:26.885Z,219.38
2022-08-02T12:44:21.851Z,213.75
2022-08-02T12:45:21.900Z,225.00
2022-08-02T12:46:21.845Z,202.50
2022-08-02T12:47:21.901Z,185.62
2022-08-02T12:48:21.811Z,180.00
2022-08-02T12:49:21.893Z,185.62
2022-08-02T12:50:21.792Z,191.25
2022-08-02T12:51:21.795Z,196.88
2022-08-02T12:52:21.770Z,196.88
2022-08-02T12:53:21.764Z,202.50
2022-08-02T12:54:30.662Z,208.12
2022-08-02T12:55:22.743Z,219.38
2022-08-02T12:56:21.739Z,213.75
2022-08-02T12:57:21.770Z,225.00
2022-08-02T12:58:21.733Z,225.00
2022-08-02T12:59:21.698Z,213.75
2022-08-02T13:00:21.692Z,225.00
2022-08-02T13:01:21.771Z,225.00
2022-08-02T13:02:21.984Z,247.50
2022-08-02T13:04:11.062Z,253.12
2022-08-02T13:04:22.648Z,247.50
2022-08-02T13:05:26.656Z,230.62
2022-08-02T13:06:50.345Z,213.75
2022-08-02T13:07:22.636Z,196.88
2022-08-02T13:08:21.604Z,191.25
2022-08-02T13:09:24.760Z,185.62
2022-08-02T13:10:22.582Z,191.25
2022-08-02T13:11:21.582Z,196.88
2022-08-02T13:12:21.567Z,208.12
2022-08-02T13:13:21.551Z,202.50
2022-08-02T13:14:21.541Z,191.25
2022-08-02T13:15:49.265Z,191.25
2022-08-02T13:16:30.570Z,191.25
2022-08-02T13:17:22.513Z,180.00
2022-08-02T13:18:26.529Z,180.00
2022-08-02T13:19:21.518Z,174.38
2022-08-02T13:20:21.500Z,168.75
2022-08-02T13:21:40.208Z,163.12
2022-08-02T13:22:22.458Z,151.88
2022-08-02T13:23:22.159Z,146.25
2022-08-02T13:24:38.814Z,146.25
2022-08-02T13:25:22.424Z,135.00
2022-08-02T13:26:21.426Z,135.00
2022-08-02T13:27:21.511Z,129.38
2022-08-02T13:28:21.392Z,129.38
2022-08-02T13:29:21.381Z,129.38
2022-08-02T13:30:21.373Z,129.38
2022-08-02T13:31:36.035Z,129.38
2022-08-02T13:32:22.373Z,123.75
2022-08-02T13:33:21.375Z,112.50
2022-08-02T13:34:21.329Z,106.88
2022-08-02T13:35:21.330Z,112.50
2022-08-02T13:36:21.321Z,106.88
2022-08-02T13:37:21.295Z,101.25
2022-08-02T13:38:24.913Z,101.25
2022-08-02T13:39:21.274Z,106.88
2022-08-02T13:40:22.545Z,106.88
2022-08-02T13:41:21.263Z,106.88
2022-08-02T13:42:21.244Z,106.88
2022-08-02T13:43:21.233Z,106.88
2022-08-02T13:44:26.243Z,101.25
2022-08-02T13:45:21.241Z,101.25
2022-08-02T13:46:29.379Z,101.25
2022-08-02T13:47:35.805Z,101.25
2022-08-02T13:48:22.175Z,95.62
2022-08-02T13:49:21.676Z,101.25
2022-08-02T13:50:22.246Z,101.25
2022-08-02T13:51:21.156Z,95.62
2022-08-02T13:52:21.134Z,95.62
2022-08-02T13:53:21.127Z,95.62
2022-08-02T13:54:21.112Z,101.25
2022-08-02T13:55:21.104Z,95.62
2022-08-02T13:56:35.905Z,95.62
2022-08-02T13:57:27.107Z,95.62
2022-08-02T13:58:21.092Z,95.62
2022-08-02T13:59:21.920Z,101.25
2022-08-02T14:00:35.089Z,101.25
2022-08-02T14:01:22.129Z,101.25
2022-08-02T14:02:21.032Z,106.88
2022-08-02T14:03:21.018Z,112.50
2022-08-02T14:04:21.020Z,101.25
2022-08-02T14:05:25.143Z,101.25
2022-08-02T14:06:21.995Z,106.88
2022-08-02T14:07:20.976Z,101.25
2022-08-02T14:08:20.984Z,106.88
2022-08-02T14:09:20.960Z,112.50
2022-08-02T14:10:25.964Z,118.12
2022-08-02T14:11:20.972Z,118.12
2022-08-02T14:12:20.949Z,118.12
2022-08-02T14:13:20.915Z,112.50
2022-08-02T14:14:20.897Z,106.88
2022-08-02T14:15:20.892Z,106.88
2022-08-02T14:16:20.897Z,101.25
2022-08-02T14:17:20.876Z,95.62
2022-08-02T14:18:20.861Z,95.62
2022-08-02T14:19:20.919Z,106.88
2022-08-02T14:20:23.133Z,106.88
2022-08-02T14:21:21.834Z,112.50
2022-08-02T14:22:20.816Z,112.50
2022-08-02T14:23:49.626Z,106.88
2022-08-02T14:24:21.811Z,106.88
2022-08-02T14:25:20.805Z,112.50
2022-08-02T14:26:27.572Z,112.50
2022-08-02T14:27:21.793Z,106.88
2022-08-02T14:28:20.775Z,106.88
2022-08-02T14:29:20.742Z,106.88
2022-08-02T14:30:20.724Z,106.88
2022-08-02T14:31:20.729Z,106.88
2022-08-02T14:32:20.706Z,101.25
2022-08-02T14:33:21.694Z,101.25
2022-08-02T14:34:20.703Z,101.25
2022-08-02T14:35:20.677Z,95.62
2022-08-02T14:36:27.207Z,95.62
2022-08-02T14:37:20.674Z,95.62
2022-08-02T14:38:20.663Z,95.62
2022-08-02T14:39:20.631Z,95.62
2022-08-02T14:40:30.885Z,101.25
2022-08-02T14:41:21.810Z,101.25
2022-08-02T14:42:20.597Z,101.25
2022-08-02T14:43:20.586Z,101.25
2022-08-02T14:44:20.650Z,101.25
2022-08-02T14:45:20.564Z,101.25
2022-08-02T14:46:20.611Z,112.50
2022-08-02T14:47:20.574Z,112.50
2022-08-02T14:48:20.532Z,112.50
2022-08-02T14:49:26.920Z,106.88
2022-08-02T14:50:20.557Z,90.00
2022-08-02T14:51:20.537Z,101.25
2022-08-02T14:52:20.490Z,95.62
2022-08-02T14:53:20.496Z,95.62
2022-08-02T14:54:20.467Z,95.62
2022-08-02T14:55:21.457Z,95.62
2022-08-02T14:56:20.450Z,90.00
2022-08-02T14:57:20.457Z,84.38
2022-08-02T14:58:20.423Z,90.00
2022-08-02T14:59:20.438Z,90.00
2022-08-02T15:00:20.406Z,95.62
2022-08-02T15:01:20.441Z,95.62
2022-08-02T15:02:26.411Z,95.62
2022-08-02T15:03:20.403Z,95.62
2022-08-02T15:04:20.388Z,95.62
2022-08-02T15:05:20.359Z,90.00
2022-08-02T15:06:20.339Z,90.00
2022-08-02T15:07:20.342Z,90.00
2022-08-02T15:08:20.320Z,90.00
2022-08-02T15:09:20.323Z,84.38
2022-08-02T15:10:20.331Z,90.00
2022-08-02T15:11:20.306Z,84.38
2022-08-02T15:12:20.283Z,84.38
2022-08-02T15:13:20.272Z,84.38
2022-08-02T15:14:25.641Z,84.38
2022-08-02T15:15:26.263Z,84.38
2022-08-02T15:16:20.253Z,84.38
2022-08-02T15:17:20.260Z,84.38
2022-08-02T15:18:20.211Z,84.38
2022-08-02T15:19:20.200Z,84.38
2022-08-02T15:20:25.285Z,84.38
2022-08-02T15:21:40.721Z,84.38
2022-08-02T15:22:21.179Z,84.38
2022-08-02T15:23:20.201Z,84.38
2022-08-02T15:24:20.145Z,90.00
2022-08-02T15:25:20.135Z,90.00
2022-08-02T15:26:20.126Z,84.38
2022-08-02T15:27:20.147Z,84.38
2022-08-02T15:28:25.150Z,84.38
2022-08-02T15:29:20.114Z,84.38
2022-08-02T15:30:20.106Z,84.38
2022-08-02T15:31:22.276Z,84.38
2022-08-02T15:32:21.078Z,84.38
2022-08-02T15:33:20.051Z,90.00
2022-08-02T15:34:20.038Z,90.00
2022-08-02T15:35:20.028Z,84.38
2022-08-02T15:36:20.018Z,90.00
2022-08-02T15:37:20.018Z,90.00
2022-08-02T15:38:19.995Z,95.62
2022-08-02T15:39:19.987Z,90.00
2022-08-02T15:40:19.975Z,95.62
2022-08-02T15:41:24.990Z,95.62
2022-08-02T15:42:19.984Z,101.25
2022-08-02T15:43:20.967Z,101.25
2022-08-02T15:44:19.932Z,106.88
2022-08-02T15:45:19.929Z,101.25
2022-08-02T15:46:19.908Z,106.88
2022-08-02T15:47:19.914Z,106.88
2022-08-02T15:48:19.887Z,106.88
2022-08-02T15:49:19.910Z,106.88
2022-08-02T15:50:19.868Z,101.25
2022-08-02T15:51:19.861Z,106.88
2022-08-02T15:52:19.860Z,101.25
2022-08-02T15:53:19.835Z,95.62
2022-08-02T15:54:24.848Z,95.62
2022-08-02T15:55:19.814Z,90.00
2022-08-02T15:56:23.819Z,95.62
2022-08-02T15:57:19.805Z,90.00
2022-08-02T15:58:22.480Z,90.00
2022-08-02T15:59:19.774Z,84.38
2022-08-02T16:00:19.758Z,84.38
2022-08-02T16:01:19.823Z,84.38
2022-08-02T16:02:19.782Z,84.38
2022-08-02T16:03:19.734Z,78.75
2022-08-02T16:04:19.716Z,78.75
2022-08-02T16:05:24.746Z,78.75
2022-08-02T16:06:19.694Z,78.75
2022-08-02T16:07:19.696Z,78.75
2022-08-02T16:08:19.681Z,78.75
2022-08-02T16:09:19.665Z,78.75
2022-08-02T16:10:19.654Z,78.75
2022-08-02T16:11:19.644Z,78.75
2022-08-02T16:12:19.652Z,73.12
2022-08-02T16:13:20.623Z,78.75
2022-08-02T16:14:19.608Z,73.12
2022-08-02T16:15:19.600Z,73.12
2022-08-02T16:16:24.620Z,73.12
2022-08-02T16:17:51.700Z,73.12
2022-08-02T16:18:20.570Z,73.12
2022-08-02T16:19:46.729Z,67.50
2022-08-02T16:20:20.560Z,67.50
2022-08-02T16:21:19.547Z,67.50
2022-08-02T16:22:19.553Z,61.88
2022-08-02T16:23:19.516Z,61.88
2022-08-02T16:24:20.526Z,61.88
2022-08-02T16:25:19.500Z,56.25
2022-08-02T16:26:19.486Z,56.25
2022-08-02T16:27:24.640Z,56.25
2022-08-02T16:28:19.468Z,56.25
2022-08-02T16:29:19.673Z,56.25
2022-08-02T16:30:19.436Z,56.25
2022-08-02T16:31:19.448Z,56.25
2022-08-02T16:32:19.423Z,56.25
2022-08-02T16:33:19.412Z,56.25
2022-08-02T16:34:19.393Z,56.25
2022-08-02T16:35:19.387Z,56.25
2022-08-02T16:36:19.738Z,56.25
2022-08-02T16:37:19.387Z,56.25
2022-08-02T16:38:24.374Z,56.25